sensor_id;sensor_type;location;lat;lon;timestamp;temperature;humidity
27276;DHT22;14772;47.398;8.080;2022-12-10T00:04:41;3.50;99.90
27276;DHT22;14772;47.398;8.080;2022-12-10T00:09:40;3.50;99.90
27276;DHT22;14772;47.398;8.080;2022-12-10T00:14:40;3.40;99.90
27276;DHT22;14772;47.398;8.080;2022-12-10T00:19:37;3.40;99.90
27276;DHT22;14772;47.398;8.080;2022-12-10T00:24:35;3.50;99.90
27276;DHT22;14772;47.398;8.080;2022-12-10T00:29:32;3.50;99.90
27276;DHT22;14772;47.398;8.080;2022-12-10T00:34:29;3.40;99.90
27276;DHT22;14772;47.398;8.080;2022-12-10T00:39:26;3.40;99.90
27276;DHT22;14772;47.398;8.080;2022-12-10T00:44:24;3.40;99.90
27276;DHT22;14772;47.398;8.080;2022-12-10T00:49:21;3.40;99.90
27276;DHT22;14772;47.398;8.080;2022-12-10T00:54:18;3.50;99.90
27276;DHT22;14772;47.398;8.080;2022-12-10T00:59:15;3.40;99.90
27276;DHT22;14772;47.398;8.080;2022-12-10T01:04:15;3.50;99.90
27276;DHT22;14772;47.398;8.080;2022-12-10T01:09:14;3.50;99.90
27276;DHT22;14772;47.398;8.080;2022-12-10T01:14:13;3.60;99.90
27276;DHT22;14772;47.398;8.080;2022-12-10T01:19:11;3.60;99.90
27276;DHT22;14772;47.398;8.080;2022-12-10T01:24:09;3.60;99.90
27276;DHT22;14772;47.398;8.080;2022-12-10T01:29:06;3.30;99.90
27276;DHT22;14772;47.398;8.080;2022-12-10T01:34:04;3.40;99.90
27276;DHT22;14772;47.398;8.080;2022-12-10T01:39:05;3.30;99.90
27276;DHT22;14772;47.398;8.080;2022-12-10T01:44:05;3.50;99.90
27276;DHT22;14772;47.398;8.080;2022-12-10T01:49:04;3.60;99.90
27276;DHT22;14772;47.398;8.080;2022-12-10T01:54:07;3.60;99.90
27276;DHT22;14772;47.398;8.080;2022-12-10T01:59:03;3.60;99.90
27276;DHT22;14772;47.398;8.080;2022-12-10T02:04:09;3.60;99.90
27276;DHT22;14772;47.398;8.080;2022-12-10T02:09:11;3.60;99.90
27276;DHT22;14772;47.398;8.080;2022-12-10T02:14:12;3.60;99.90
27276;DHT22;14772;47.398;8.080;2022-12-10T02:19:15;3.60;99.90
27276;DHT22;14772;47.398;8.080;2022-12-10T02:24:15;3.60;99.90
27276;DHT22;14772;47.398;8.080;2022-12-10T02:29:15;3.60;99.90
27276;DHT22;14772;47.398;8.080;2022-12-10T02:34:13;3.60;99.90
27276;DHT22;14772;47.398;8.080;2022-12-10T02:39:13;3.60;99.90
27276;DHT22;14772;47.398;8.080;2022-12-10T02:44:13;3.60;99.90
27276;DHT22;14772;47.398;8.080;2022-12-10T02:49:13;3.50;99.90
27276;DHT22;14772;47.398;8.080;2022-12-10T02:54:34;3.50;99.90
27276;DHT22;14772;47.398;8.080;2022-12-10T02:59:35;3.60;99.90
27276;DHT22;14772;47.398;8.080;2022-12-10T03:04:36;3.60;99.90
27276;DHT22;14772;47.398;8.080;2022-12-10T03:09:36;3.60;99.90
27276;DHT22;14772;47.398;8.080;2022-12-10T03:14:35;3.50;99.90
27276;DHT22;14772;47.398;8.080;2022-12-10T03:19:36;3.50;99.90
27276;DHT22;14772;47.398;8.080;2022-12-10T03:24:35;3.50;99.90
27276;DHT22;14772;47.398;8.080;2022-12-10T03:29:35;3.60;99.90
27276;DHT22;14772;47.398;8.080;2022-12-10T03:34:34;3.60;99.90
27276;DHT22;14772;47.398;8.080;2022-12-10T03:39:33;3.50;99.90
27276;DHT22;14772;47.398;8.080;2022-12-10T03:44:32;3.60;99.90
27276;DHT22;14772;47.398;8.080;2022-12-10T03:49:29;3.50;99.90
27276;DHT22;14772;47.398;8.080;2022-12-10T03:54:27;3.30;99.90
27276;DHT22;14772;47.398;8.080;2022-12-10T03:59:24;3.30;99.90
27276;DHT22;14772;47.398;8.080;2022-12-10T04:04:21;3.20;99.90
27276;DHT22;14772;47.398;8.080;2022-12-10T04:09:18;3.30;99.90
27276;DHT22;14772;47.398;8.080;2022-12-10T04:14:16;3.20;99.90
27276;DHT22;14772;47.398;8.080;2022-12-10T04:19:15;2.80;99.90
27276;DHT22;14772;47.398;8.080;2022-12-10T04:24:13;2.60;99.90
27276;DHT22;14772;47.398;8.080;2022-12-10T04:29:11;2.90;99.90
27276;DHT22;14772;47.398;8.080;2022-12-10T04:34:09;3.20;99.90
27276;DHT22;14772;47.398;8.080;2022-12-10T04:39:06;3.30;99.90
27276;DHT22;14772;47.398;8.080;2022-12-10T04:44:04;3.40;99.90
27276;DHT22;14772;47.398;8.080;2022-12-10T04:49:01;3.40;99.90
27276;DHT22;14772;47.398;8.080;2022-12-10T04:53:59;3.40;99.90
27276;DHT22;14772;47.398;8.080;2022-12-10T04:58:56;3.40;99.90
27276;DHT22;14772;47.398;8.080;2022-12-10T05:03:54;3.40;99.90
27276;DHT22;14772;47.398;8.080;2022-12-10T05:08:52;3.40;99.90
27276;DHT22;14772;47.398;8.080;2022-12-10T05:13:49;3.40;99.90
27276;DHT22;14772;47.398;8.080;2022-12-10T05:18:47;3.40;99.90
27276;DHT22;14772;47.398;8.080;2022-12-10T05:23:46;3.50;99.90
27276;DHT22;14772;47.398;8.080;2022-12-10T05:28:45;3.50;99.90
27276;DHT22;14772;47.398;8.080;2022-12-10T05:33:43;3.50;99.90
27276;DHT22;14772;47.398;8.080;2022-12-10T05:38:41;3.50;99.90
27276;DHT22;14772;47.398;8.080;2022-12-10T05:43:38;3.50;99.90
27276;DHT22;14772;47.398;8.080;2022-12-10T05:48:36;3.50;99.90
27276;DHT22;14772;47.398;8.080;2022-12-10T05:53:33;3.40;99.90
27276;DHT22;14772;47.398;8.080;2022-12-10T05:58:31;3.40;99.90
27276;DHT22;14772;47.398;8.080;2022-12-10T06:03:29;3.50;99.90
27276;DHT22;14772;47.398;8.080;2022-12-10T06:08:26;3.50;99.90
27276;DHT22;14772;47.398;8.080;2022-12-10T06:13:24;3.20;99.90
27276;DHT22;14772;47.398;8.080;2022-12-10T06:18:21;3.00;99.90
27276;DHT22;14772;47.398;8.080;2022-12-10T06:23:18;3.20;99.90
27276;DHT22;14772;47.398;8.080;2022-12-10T06:28:15;3.00;99.90
27276;DHT22;14772;47.398;8.080;2022-12-10T06:33:13;3.20;99.90
27276;DHT22;14772;47.398;8.080;2022-12-10T06:38:10;2.90;99.90
27276;DHT22;14772;47.398;8.080;2022-12-10T06:43:07;3.10;99.90
27276;DHT22;14772;47.398;8.080;2022-12-10T06:48:05;3.30;99.90
27276;DHT22;14772;47.398;8.080;2022-12-10T06:53:03;3.10;99.90
27276;DHT22;14772;47.398;8.080;2022-12-10T06:58:00;3.30;99.90
27276;DHT22;14772;47.398;8.080;2022-12-10T07:02:58;3.30;99.90
27276;DHT22;14772;47.398;8.080;2022-12-10T07:07:56;3.30;99.90
27276;DHT22;14772;47.398;8.080;2022-12-10T07:12:54;3.30;99.90
27276;DHT22;14772;47.398;8.080;2022-12-10T07:17:51;3.30;99.90
27276;DHT22;14772;47.398;8.080;2022-12-10T07:22:49;3.30;99.90
27276;DHT22;14772;47.398;8.080;2022-12-10T07:27:46;3.30;99.90
27276;DHT22;14772;47.398;8.080;2022-12-10T07:32:43;3.30;99.90
27276;DHT22;14772;47.398;8.080;2022-12-10T07:37:40;3.10;99.90
27276;DHT22;14772;47.398;8.080;2022-12-10T07:42:37;2.90;99.90
27276;DHT22;14772;47.398;8.080;2022-12-10T07:47:36;2.80;99.90
27276;DHT22;14772;47.398;8.080;2022-12-10T07:52:33;2.80;99.90
27276;DHT22;14772;47.398;8.080;2022-12-10T07:57:30;2.70;99.90
27276;DHT22;14772;47.398;8.080;2022-12-10T08:02:28;3.00;99.90
27276;DHT22;14772;47.398;8.080;2022-12-10T08:07:25;3.00;99.90
27276;DHT22;14772;47.398;8.080;2022-12-10T08:12:22;3.10;99.90
27276;DHT22;14772;47.398;8.080;2022-12-10T08:17:19;3.20;99.90
27276;DHT22;14772;47.398;8.080;2022-12-10T08:22:16;3.30;99.90
27276;DHT22;14772;47.398;8.080;2022-12-10T08:27:14;3.30;99.90
27276;DHT22;14772;47.398;8.080;2022-12-10T08:32:11;3.40;99.90
27276;DHT22;14772;47.398;8.080;2022-12-10T08:37:08;3.40;99.90
27276;DHT22;14772;47.398;8.080;2022-12-10T08:42:05;3.40;99.90
27276;DHT22;14772;47.398;8.080;2022-12-10T08:47:03;3.50;99.90
27276;DHT22;14772;47.398;8.080;2022-12-10T08:52:00;3.50;99.90
27276;DHT22;14772;47.398;8.080;2022-12-10T08:56:57;3.50;99.90
27276;DHT22;14772;47.398;8.080;2022-12-10T09:01:54;3.60;99.90
27276;DHT22;14772;47.398;8.080;2022-12-10T09:06:51;3.60;99.90
27276;DHT22;14772;47.398;8.080;2022-12-10T09:11:48;3.60;99.90
27276;DHT22;14772;47.398;8.080;2022-12-10T09:16:46;3.50;99.90
27276;DHT22;14772;47.398;8.080;2022-12-10T09:21:43;3.60;99.90
27276;DHT22;14772;47.398;8.080;2022-12-10T09:26:46;3.60;99.90
27276;DHT22;14772;47.398;8.080;2022-12-10T09:31:41;3.50;99.90
27276;DHT22;14772;47.398;8.080;2022-12-10T09:36:38;3.10;99.90
27276;DHT22;14772;47.398;8.080;2022-12-10T09:42:11;3.10;99.90
27276;DHT22;14772;47.398;8.080;2022-12-10T09:47:11;3.40;99.90
27276;DHT22;14772;47.398;8.080;2022-12-10T09:52:12;3.30;99.90
27276;DHT22;14772;47.398;8.080;2022-12-10T09:57:16;3.40;99.90
27276;DHT22;14772;47.398;8.080;2022-12-10T10:02:23;3.40;99.90
27276;DHT22;14772;47.398;8.080;2022-12-10T10:07:24;3.10;99.90
27276;DHT22;14772;47.398;8.080;2022-12-10T10:12:22;2.90;99.90
27276;DHT22;14772;47.398;8.080;2022-12-10T10:17:23;3.20;99.90
27276;DHT22;14772;47.398;8.080;2022-12-10T10:22:20;3.30;99.90
27276;DHT22;14772;47.398;8.080;2022-12-10T10:27:20;3.10;99.90
27276;DHT22;14772;47.398;8.080;2022-12-10T10:32:19;3.30;99.90
27276;DHT22;14772;47.398;8.080;2022-12-10T10:37:40;3.30;99.90
27276;DHT22;14772;47.398;8.080;2022-12-10T10:42:39;3.40;99.90
27276;DHT22;14772;47.398;8.080;2022-12-10T10:47:37;3.40;99.90
27276;DHT22;14772;47.398;8.080;2022-12-10T10:52:37;3.30;99.90
27276;DHT22;14772;47.398;8.080;2022-12-10T10:57:36;3.50;99.90
27276;DHT22;14772;47.398;8.080;2022-12-10T11:02:36;3.60;99.90
27276;DHT22;14772;47.398;8.080;2022-12-10T11:07:36;3.60;99.90
27276;DHT22;14772;47.398;8.080;2022-12-10T11:12:36;3.70;99.90
27276;DHT22;14772;47.398;8.080;2022-12-10T11:17:33;3.60;99.90
27276;DHT22;14772;47.398;8.080;2022-12-10T11:22:33;3.60;99.90
27276;DHT22;14772;47.398;8.080;2022-12-10T11:27:45;3.60;99.90
27276;DHT22;14772;47.398;8.080;2022-12-10T11:38:09;3.10;99.90
27276;DHT22;14772;47.398;8.080;2022-12-10T11:43:32;2.70;99.90
27276;DHT22;14772;47.398;8.080;2022-12-10T11:48:38;2.70;99.90
27276;DHT22;14772;47.398;8.080;2022-12-10T11:53:45;2.90;99.90
27276;DHT22;14772;47.398;8.080;2022-12-10T11:58:59;2.90;99.90
27276;DHT22;14772;47.398;8.080;2022-12-10T12:09:25;3.30;99.90
27276;DHT22;14772;47.398;8.080;2022-12-10T12:14:25;3.40;99.90
27276;DHT22;14772;47.398;8.080;2022-12-10T12:19:28;3.30;99.90
27276;DHT22;14772;47.398;8.080;2022-12-10T12:24:29;2.90;99.90
27276;DHT22;14772;47.398;8.080;2022-12-10T12:29:28;3.10;99.90
27276;DHT22;14772;47.398;8.080;2022-12-10T12:34:32;3.10;99.90
27276;DHT22;14772;47.398;8.080;2022-12-10T12:39:32;3.10;99.90
27276;DHT22;14772;47.398;8.080;2022-12-10T12:44:33;3.20;99.90
27276;DHT22;14772;47.398;8.080;2022-12-10T12:49:34;3.30;99.90
27276;DHT22;14772;47.398;8.080;2022-12-10T12:54:32;3.30;99.90
27276;DHT22;14772;47.398;8.080;2022-12-10T12:59:39;3.40;99.90
27276;DHT22;14772;47.398;8.080;2022-12-10T13:04:36;3.40;99.90
27276;DHT22;14772;47.398;8.080;2022-12-10T13:09:33;3.30;99.90
27276;DHT22;14772;47.398;8.080;2022-12-10T13:14:35;3.30;99.90
27276;DHT22;14772;47.398;8.080;2022-12-10T13:19:33;3.30;99.90
27276;DHT22;14772;47.398;8.080;2022-12-10T13:30:34;3.40;99.90
27276;DHT22;14772;47.398;8.080;2022-12-10T13:35:33;3.40;99.90
27276;DHT22;14772;47.398;8.080;2022-12-10T13:40:40;3.30;99.90
27276;DHT22;14772;47.398;8.080;2022-12-10T13:45:38;3.30;99.90
27276;DHT22;14772;47.398;8.080;2022-12-10T13:50:38;3.10;99.90
27276;DHT22;14772;47.398;8.080;2022-12-10T13:55:38;3.30;99.90
27276;DHT22;14772;47.398;8.080;2022-12-10T14:00:39;3.20;99.90
27276;DHT22;14772;47.398;8.080;2022-12-10T14:05:48;3.30;99.90
27276;DHT22;14772;47.398;8.080;2022-12-10T14:10:47;3.30;99.90
27276;DHT22;14772;47.398;8.080;2022-12-10T14:20:47;3.30;99.90
27276;DHT22;14772;47.398;8.080;2022-12-10T14:25:46;3.20;99.90
27276;DHT22;14772;47.398;8.080;2022-12-10T14:30:45;3.20;99.90
27276;DHT22;14772;47.398;8.080;2022-12-10T14:35:43;3.20;99.90
27276;DHT22;14772;47.398;8.080;2022-12-10T14:40:42;3.20;99.90
27276;DHT22;14772;47.398;8.080;2022-12-10T14:45:42;3.20;99.90
27276;DHT22;14772;47.398;8.080;2022-12-10T14:50:40;3.30;99.90
27276;DHT22;14772;47.398;8.080;2022-12-10T14:55:38;3.30;99.90
27276;DHT22;14772;47.398;8.080;2022-12-10T15:00:35;3.30;99.90
27276;DHT22;14772;47.398;8.080;2022-12-10T15:05:34;3.40;99.90
27276;DHT22;14772;47.398;8.080;2022-12-10T15:10:34;3.40;99.90
27276;DHT22;14772;47.398;8.080;2022-12-10T15:15:34;3.30;99.90
27276;DHT22;14772;47.398;8.080;2022-12-10T15:20:37;3.30;99.90
27276;DHT22;14772;47.398;8.080;2022-12-10T15:25:42;3.20;99.90
27276;DHT22;14772;47.398;8.080;2022-12-10T15:30:40;3.20;99.90
27276;DHT22;14772;47.398;8.080;2022-12-10T15:35:37;3.20;99.90
27276;DHT22;14772;47.398;8.080;2022-12-10T15:40:34;3.10;99.90
27276;DHT22;14772;47.398;8.080;2022-12-10T15:45:39;3.10;99.90
27276;DHT22;14772;47.398;8.080;2022-12-10T15:50:37;3.10;99.90
27276;DHT22;14772;47.398;8.080;2022-12-10T15:55:35;3.20;99.90
27276;DHT22;14772;47.398;8.080;2022-12-10T16:00:32;3.10;99.90
27276;DHT22;14772;47.398;8.080;2022-12-10T16:05:31;3.20;99.90
27276;DHT22;14772;47.398;8.080;2022-12-10T16:10:30;3.20;99.90
27276;DHT22;14772;47.398;8.080;2022-12-10T16:15:29;3.20;99.90
27276;DHT22;14772;47.398;8.080;2022-12-10T16:20:31;3.10;99.90
27276;DHT22;14772;47.398;8.080;2022-12-10T16:25:30;3.20;99.90
27276;DHT22;14772;47.398;8.080;2022-12-10T16:30:33;3.20;99.90
27276;DHT22;14772;47.398;8.080;2022-12-10T16:35:30;3.20;99.90
27276;DHT22;14772;47.398;8.080;2022-12-10T16:45:41;3.20;99.90
27276;DHT22;14772;47.398;8.080;2022-12-10T16:50:39;3.20;99.90
27276;DHT22;14772;47.398;8.080;2022-12-10T16:55:36;3.30;99.90
27276;DHT22;14772;47.398;8.080;2022-12-10T17:00:33;3.20;99.90
27276;DHT22;14772;47.398;8.080;2022-12-10T17:05:33;3.30;99.90
27276;DHT22;14772;47.398;8.080;2022-12-10T17:10:32;3.30;99.90
27276;DHT22;14772;47.398;8.080;2022-12-10T17:15:29;3.30;99.90
27276;DHT22;14772;47.398;8.080;2022-12-10T17:20:26;3.30;99.90
27276;DHT22;14772;47.398;8.080;2022-12-10T17:25:24;3.30;99.90
27276;DHT22;14772;47.398;8.080;2022-12-10T17:30:21;3.30;99.90
27276;DHT22;14772;47.398;8.080;2022-12-10T17:35:19;3.30;99.90
27276;DHT22;14772;47.398;8.080;2022-12-10T17:40:19;3.20;99.90
27276;DHT22;14772;47.398;8.080;2022-12-10T17:45:18;3.20;99.90
27276;DHT22;14772;47.398;8.080;2022-12-10T17:50:23;3.30;99.90
27276;DHT22;14772;47.398;8.080;2022-12-10T17:55:20;3.30;99.90
27276;DHT22;14772;47.398;8.080;2022-12-10T18:00:20;3.30;99.90
27276;DHT22;14772;47.398;8.080;2022-12-10T18:05:17;3.30;99.90
27276;DHT22;14772;47.398;8.080;2022-12-10T18:10:18;3.30;99.90
27276;DHT22;14772;47.398;8.080;2022-12-10T18:15:16;3.30;99.90
27276;DHT22;14772;47.398;8.080;2022-12-10T18:20:20;3.20;99.90
27276;DHT22;14772;47.398;8.080;2022-12-10T18:25:17;3.30;99.90
27276;DHT22;14772;47.398;8.080;2022-12-10T18:30:17;3.20;99.90
27276;DHT22;14772;47.398;8.080;2022-12-10T18:35:15;3.10;99.90
27276;DHT22;14772;47.398;8.080;2022-12-10T18:40:15;3.10;99.90
27276;DHT22;14772;47.398;8.080;2022-12-10T18:45:12;3.10;99.90
27276;DHT22;14772;47.398;8.080;2022-12-10T18:50:18;3.20;99.90
27276;DHT22;14772;47.398;8.080;2022-12-10T19:00:23;3.20;99.90
27276;DHT22;14772;47.398;8.080;2022-12-10T19:05:21;3.20;99.90
27276;DHT22;14772;47.398;8.080;2022-12-10T19:10:20;3.20;99.90
27276;DHT22;14772;47.398;8.080;2022-12-10T19:15:20;3.20;99.90
27276;DHT22;14772;47.398;8.080;2022-12-10T19:20:19;3.20;99.90
27276;DHT22;14772;47.398;8.080;2022-12-10T19:25:17;3.20;99.90
27276;DHT22;14772;47.398;8.080;2022-12-10T19:30:17;3.10;99.90
27276;DHT22;14772;47.398;8.080;2022-12-10T19:35:17;3.00;99.90
27276;DHT22;14772;47.398;8.080;2022-12-10T19:45:24;3.10;99.90
27276;DHT22;14772;47.398;8.080;2022-12-10T19:50:24;3.10;99.90
27276;DHT22;14772;47.398;8.080;2022-12-10T19:55:22;3.10;99.90
27276;DHT22;14772;47.398;8.080;2022-12-10T20:00:22;3.10;99.90
27276;DHT22;14772;47.398;8.080;2022-12-10T20:05:20;3.00;99.90
27276;DHT22;14772;47.398;8.080;2022-12-10T20:10:20;2.90;99.90
27276;DHT22;14772;47.398;8.080;2022-12-10T20:15:18;2.60;99.90
27276;DHT22;14772;47.398;8.080;2022-12-10T20:20:17;2.40;99.90
27276;DHT22;14772;47.398;8.080;2022-12-10T20:25:17;2.30;99.90
27276;DHT22;14772;47.398;8.080;2022-12-10T20:30:17;2.40;99.90
27276;DHT22;14772;47.398;8.080;2022-12-10T20:35:15;2.40;99.90
27276;DHT22;14772;47.398;8.080;2022-12-10T20:40:15;2.60;99.90
27276;DHT22;14772;47.398;8.080;2022-12-10T20:45:13;2.80;99.90
27276;DHT22;14772;47.398;8.080;2022-12-10T20:50:12;2.90;99.90
27276;DHT22;14772;47.398;8.080;2022-12-10T20:55:11;2.90;99.90
27276;DHT22;14772;47.398;8.080;2022-12-10T21:00:14;2.90;99.90
27276;DHT22;14772;47.398;8.080;2022-12-10T21:05:12;3.00;99.90
27276;DHT22;14772;47.398;8.080;2022-12-10T21:10:13;3.00;99.90
27276;DHT22;14772;47.398;8.080;2022-12-10T21:15:11;2.90;99.90
27276;DHT22;14772;47.398;8.080;2022-12-10T21:20:10;3.00;99.90
27276;DHT22;14772;47.398;8.080;2022-12-10T21:25:09;3.00;99.90
27276;DHT22;14772;47.398;8.080;2022-12-10T21:30:11;2.90;99.90
27276;DHT22;14772;47.398;8.080;2022-12-10T21:35:08;2.90;99.90
27276;DHT22;14772;47.398;8.080;2022-12-10T21:40:08;2.90;99.90
27276;DHT22;14772;47.398;8.080;2022-12-10T21:45:07;2.90;99.90
27276;DHT22;14772;47.398;8.080;2022-12-10T21:50:05;2.80;99.90
27276;DHT22;14772;47.398;8.080;2022-12-10T21:55:03;2.70;99.90
27276;DHT22;14772;47.398;8.080;2022-12-10T22:00:01;2.60;99.90
27276;DHT22;14772;47.398;8.080;2022-12-10T22:04:58;2.70;99.90
27276;DHT22;14772;47.398;8.080;2022-12-10T22:09:56;2.90;99.90
27276;DHT22;14772;47.398;8.080;2022-12-10T22:14:53;2.90;99.90
27276;DHT22;14772;47.398;8.080;2022-12-10T22:19:50;3.00;99.90
27276;DHT22;14772;47.398;8.080;2022-12-10T22:24:47;2.90;99.90
27276;DHT22;14772;47.398;8.080;2022-12-10T22:29:45;2.90;99.90
27276;DHT22;14772;47.398;8.080;2022-12-10T22:34:42;2.90;99.90
27276;DHT22;14772;47.398;8.080;2022-12-10T22:44:48;2.80;99.90
27276;DHT22;14772;47.398;8.080;2022-12-10T22:49:45;2.70;99.90
27276;DHT22;14772;47.398;8.080;2022-12-10T22:54:42;2.60;99.90
27276;DHT22;14772;47.398;8.080;2022-12-10T22:59:39;2.60;99.90
27276;DHT22;14772;47.398;8.080;2022-12-10T23:04:36;2.60;99.90
27276;DHT22;14772;47.398;8.080;2022-12-10T23:09:34;2.60;99.90
27276;DHT22;14772;47.398;8.080;2022-12-10T23:14:31;2.60;99.90
27276;DHT22;14772;47.398;8.080;2022-12-10T23:19:28;2.30;99.90
27276;DHT22;14772;47.398;8.080;2022-12-10T23:24:26;2.50;99.90
27276;DHT22;14772;47.398;8.080;2022-12-10T23:29:23;2.40;99.90
27276;DHT22;14772;47.398;8.080;2022-12-10T23:34:20;2.60;99.90
27276;DHT22;14772;47.398;8.080;2022-12-10T23:39:17;2.60;99.90
27276;DHT22;14772;47.398;8.080;2022-12-10T23:44:15;2.60;99.90
27276;DHT22;14772;47.398;8.080;2022-12-10T23:49:12;2.00;99.90
27276;DHT22;14772;47.398;8.080;2022-12-10T23:54:09;1.90;99.90
27276;DHT22;14772;47.398;8.080;2022-12-10T23:59:06;1.90;99.90
